sensor_id;sensor_type;location;lat;lon;timestamp;P1;durP1;ratioP1;P2;durP2;ratioP2
37701;SDS011;23548;51.196;6.838;2023-03-23T00:01:56;5.75;;;2.42;;
37701;SDS011;23548;51.196;6.838;2023-03-23T00:04:22;4.05;;;2.42;;
37701;SDS011;23548;51.196;6.838;2023-03-23T00:06:50;3.65;;;2.38;;
37701;SDS011;23548;51.196;6.838;2023-03-23T00:09:16;5.13;;;2.70;;
37701;SDS011;23548;51.196;6.838;2023-03-23T00:11:48;5.03;;;2.70;;
37701;SDS011;23548;51.196;6.838;2023-03-23T00:14:16;5.07;;;2.53;;
37701;SDS011;23548;51.196;6.838;2023-03-23T00:16:47;4.03;;;2.30;;
37701;SDS011;23548;51.196;6.838;2023-03-23T00:19:15;3.47;;;2.20;;
37701;SDS011;23548;51.196;6.838;2023-03-23T00:21:44;2.58;;;2.20;;
37701;SDS011;23548;51.196;6.838;2023-03-23T00:24:14;5.68;;;2.40;;
37701;SDS011;23548;51.196;6.838;2023-03-23T00:26:42;2.67;;;2.03;;
37701;SDS011;23548;51.196;6.838;2023-03-23T00:29:16;4.03;;;2.28;;
37701;SDS011;23548;51.196;6.838;2023-03-23T00:31:51;3.80;;;2.20;;
37701;SDS011;23548;51.196;6.838;2023-03-23T00:34:18;3.95;;;1.95;;
37701;SDS011;23548;51.196;6.838;2023-03-23T00:36:46;3.53;;;2.50;;
37701;SDS011;23548;51.196;6.838;2023-03-23T00:39:14;4.43;;;2.63;;
37701;SDS011;23548;51.196;6.838;2023-03-23T00:41:44;3.80;;;2.22;;
37701;SDS011;23548;51.196;6.838;2023-03-23T00:44:11;3.25;;;2.20;;
37701;SDS011;23548;51.196;6.838;2023-03-23T00:46:45;4.38;;;2.20;;
37701;SDS011;23548;51.196;6.838;2023-03-23T00:49:14;4.95;;;2.47;;
37701;SDS011;23548;51.196;6.838;2023-03-23T00:51:44;4.50;;;2.20;;
37701;SDS011;23548;51.196;6.838;2023-03-23T00:54:11;4.18;;;2.08;;
37701;SDS011;23548;51.196;6.838;2023-03-23T00:56:37;2.85;;;2.33;;
37701;SDS011;23548;51.196;6.838;2023-03-23T00:59:05;4.70;;;2.40;;
37701;SDS011;23548;51.196;6.838;2023-03-23T01:01:31;4.00;;;2.38;;
37701;SDS011;23548;51.196;6.838;2023-03-23T01:03:58;3.40;;;2.45;;
37701;SDS011;23548;51.196;6.838;2023-03-23T01:06:29;4.22;;;2.50;;
37701;SDS011;23548;51.196;6.838;2023-03-23T01:08:57;3.95;;;2.65;;
37701;SDS011;23548;51.196;6.838;2023-03-23T01:11:24;3.55;;;2.42;;
37701;SDS011;23548;51.196;6.838;2023-03-23T01:13:50;5.47;;;2.55;;
37701;SDS011;23548;51.196;6.838;2023-03-23T01:16:17;4.05;;;2.50;;
37701;SDS011;23548;51.196;6.838;2023-03-23T01:18:42;5.75;;;2.92;;
37701;SDS011;23548;51.196;6.838;2023-03-23T01:21:09;4.82;;;2.95;;
37701;SDS011;23548;51.196;6.838;2023-03-23T01:23:37;3.08;;;2.50;;
37701;SDS011;23548;51.196;6.838;2023-03-23T01:26:07;4.43;;;2.63;;
37701;SDS011;23548;51.196;6.838;2023-03-23T01:28:38;4.68;;;2.85;;
37701;SDS011;23548;51.196;6.838;2023-03-23T01:31:06;4.88;;;3.00;;
37701;SDS011;23548;51.196;6.838;2023-03-23T01:33:34;3.67;;;2.58;;
37701;SDS011;23548;51.196;6.838;2023-03-23T01:36:04;4.88;;;2.90;;
37701;SDS011;23548;51.196;6.838;2023-03-23T01:38:32;4.63;;;2.75;;
37701;SDS011;23548;51.196;6.838;2023-03-23T01:41:01;4.93;;;3.00;;
37701;SDS011;23548;51.196;6.838;2023-03-23T01:43:27;5.30;;;2.55;;
37701;SDS011;23548;51.196;6.838;2023-03-23T01:45:54;4.78;;;3.13;;
37701;SDS011;23548;51.196;6.838;2023-03-23T01:48:30;5.90;;;3.08;;
37701;SDS011;23548;51.196;6.838;2023-03-23T01:51:08;5.20;;;3.20;;
37701;SDS011;23548;51.196;6.838;2023-03-23T01:53:42;4.30;;;3.22;;
37701;SDS011;23548;51.196;6.838;2023-03-23T01:56:22;6.75;;;3.40;;
37701;SDS011;23548;51.196;6.838;2023-03-23T01:58:52;5.95;;;3.55;;
37701;SDS011;23548;51.196;6.838;2023-03-23T02:01:20;4.10;;;3.05;;
37701;SDS011;23548;51.196;6.838;2023-03-23T02:03:46;4.60;;;3.10;;
37701;SDS011;23548;51.196;6.838;2023-03-23T02:06:16;9.98;;;3.50;;
37701;SDS011;23548;51.196;6.838;2023-03-23T02:08:42;7.32;;;3.45;;
37701;SDS011;23548;51.196;6.838;2023-03-23T02:11:13;6.10;;;3.88;;
37701;SDS011;23548;51.196;6.838;2023-03-23T02:13:40;7.00;;;3.85;;
37701;SDS011;23548;51.196;6.838;2023-03-23T02:19:07;4.78;;;3.67;;
37701;SDS011;23548;51.196;6.838;2023-03-23T02:27:47;6.88;;;3.95;;
37701;SDS011;23548;51.196;6.838;2023-03-23T02:33:20;5.90;;;3.75;;
37701;SDS011;23548;51.196;6.838;2023-03-23T02:36:23;9.65;;;4.25;;
37701;SDS011;23548;51.196;6.838;2023-03-23T02:39:12;7.18;;;4.47;;
37701;SDS011;23548;51.196;6.838;2023-03-23T02:41:45;7.22;;;3.50;;
37701;SDS011;23548;51.196;6.838;2023-03-23T02:44:22;7.05;;;3.72;;
37701;SDS011;23548;51.196;6.838;2023-03-23T02:46:55;6.68;;;4.28;;
37701;SDS011;23548;51.196;6.838;2023-03-23T02:49:22;7.00;;;3.90;;
37701;SDS011;23548;51.196;6.838;2023-03-23T02:55:07;9.20;;;4.13;;
37701;SDS011;23548;51.196;6.838;2023-03-23T02:57:36;7.93;;;4.07;;
37701;SDS011;23548;51.196;6.838;2023-03-23T03:00:04;6.13;;;4.18;;
37701;SDS011;23548;51.196;6.838;2023-03-23T03:02:36;7.32;;;4.32;;
37701;SDS011;23548;51.196;6.838;2023-03-23T03:05:09;7.05;;;4.30;;
37701;SDS011;23548;51.196;6.838;2023-03-23T03:18:24;6.20;;;4.03;;
37701;SDS011;23548;51.196;6.838;2023-03-23T03:20:57;4.90;;;3.38;;
37701;SDS011;23548;51.196;6.838;2023-03-23T03:23:28;6.85;;;3.45;;
37701;SDS011;23548;51.196;6.838;2023-03-23T03:25:54;4.85;;;2.85;;
37701;SDS011;23548;51.196;6.838;2023-03-23T03:28:22;4.90;;;3.28;;
37701;SDS011;23548;51.196;6.838;2023-03-23T03:30:55;4.93;;;3.83;;
37701;SDS011;23548;51.196;6.838;2023-03-23T03:33:26;4.30;;;3.25;;
37701;SDS011;23548;51.196;6.838;2023-03-23T03:35:56;4.03;;;3.40;;
37701;SDS011;23548;51.196;6.838;2023-03-23T03:38:24;4.07;;;2.95;;
37701;SDS011;23548;51.196;6.838;2023-03-23T03:40:51;3.95;;;2.95;;
37701;SDS011;23548;51.196;6.838;2023-03-23T03:43:17;5.75;;;2.90;;
37701;SDS011;23548;51.196;6.838;2023-03-23T03:45:43;4.55;;;3.08;;
37701;SDS011;23548;51.196;6.838;2023-03-23T03:48:09;4.65;;;2.92;;
37701;SDS011;23548;51.196;6.838;2023-03-23T03:50:36;3.55;;;2.70;;
37701;SDS011;23548;51.196;6.838;2023-03-23T03:53:02;3.53;;;2.67;;
37701;SDS011;23548;51.196;6.838;2023-03-23T03:55:28;4.15;;;2.70;;
37701;SDS011;23548;51.196;6.838;2023-03-23T03:57:54;4.95;;;2.88;;
37701;SDS011;23548;51.196;6.838;2023-03-23T04:00:20;5.05;;;3.53;;
37701;SDS011;23548;51.196;6.838;2023-03-23T04:02:48;4.85;;;2.55;;
37701;SDS011;23548;51.196;6.838;2023-03-23T04:05:19;5.28;;;2.80;;
37701;SDS011;23548;51.196;6.838;2023-03-23T04:07:46;3.38;;;2.60;;
37701;SDS011;23548;51.196;6.838;2023-03-23T04:10:14;3.70;;;2.72;;
37701;SDS011;23548;51.196;6.838;2023-03-23T04:12:40;3.83;;;2.42;;
37701;SDS011;23548;51.196;6.838;2023-03-23T04:15:06;3.10;;;2.47;;
37701;SDS011;23548;51.196;6.838;2023-03-23T04:17:33;3.67;;;2.50;;
37701;SDS011;23548;51.196;6.838;2023-03-23T04:19:59;3.78;;;2.47;;
37701;SDS011;23548;51.196;6.838;2023-03-23T04:22:32;3.33;;;2.72;;
37701;SDS011;23548;51.196;6.838;2023-03-23T04:25:01;3.10;;;2.45;;
37701;SDS011;23548;51.196;6.838;2023-03-23T04:27:31;3.60;;;2.60;;
37701;SDS011;23548;51.196;6.838;2023-03-23T04:29:57;6.75;;;2.78;;
37701;SDS011;23548;51.196;6.838;2023-03-23T04:32:26;5.00;;;3.00;;
37701;SDS011;23548;51.196;6.838;2023-03-23T04:34:54;2.80;;;2.42;;
37701;SDS011;23548;51.196;6.838;2023-03-23T04:37:22;3.53;;;2.75;;
37701;SDS011;23548;51.196;6.838;2023-03-23T04:39:56;5.10;;;2.42;;
37701;SDS011;23548;51.196;6.838;2023-03-23T04:42:29;3.28;;;2.47;;
37701;SDS011;23548;51.196;6.838;2023-03-23T04:44:57;3.47;;;2.42;;
37701;SDS011;23548;51.196;6.838;2023-03-23T04:47:25;3.70;;;2.28;;
37701;SDS011;23548;51.196;6.838;2023-03-23T04:49:55;4.82;;;2.80;;
37701;SDS011;23548;51.196;6.838;2023-03-23T04:52:23;3.30;;;2.60;;
37701;SDS011;23548;51.196;6.838;2023-03-23T04:54:53;3.80;;;2.25;;
37701;SDS011;23548;51.196;6.838;2023-03-23T04:57:21;5.38;;;2.58;;
37701;SDS011;23548;51.196;6.838;2023-03-23T04:59:47;2.95;;;2.35;;
37701;SDS011;23548;51.196;6.838;2023-03-23T05:02:13;3.08;;;2.45;;
37701;SDS011;23548;51.196;6.838;2023-03-23T05:04:40;3.40;;;2.30;;
37701;SDS011;23548;51.196;6.838;2023-03-23T05:07:10;4.03;;;2.88;;
37701;SDS011;23548;51.196;6.838;2023-03-23T05:09:36;4.50;;;2.30;;
37701;SDS011;23548;51.196;6.838;2023-03-23T05:12:06;3.58;;;2.22;;
37701;SDS011;23548;51.196;6.838;2023-03-23T05:14:33;2.90;;;2.13;;
37701;SDS011;23548;51.196;6.838;2023-03-23T05:16:59;2.45;;;2.20;;
37701;SDS011;23548;51.196;6.838;2023-03-23T05:19:25;5.00;;;2.45;;
37701;SDS011;23548;51.196;6.838;2023-03-23T05:21:53;4.95;;;2.40;;
37701;SDS011;23548;51.196;6.838;2023-03-23T05:24:21;2.85;;;2.30;;
37701;SDS011;23548;51.196;6.838;2023-03-23T05:26:49;3.03;;;2.53;;
37701;SDS011;23548;51.196;6.838;2023-03-23T05:29:17;4.90;;;2.75;;
37701;SDS011;23548;51.196;6.838;2023-03-23T05:31:43;5.65;;;2.65;;
37701;SDS011;23548;51.196;6.838;2023-03-23T05:34:09;4.93;;;2.72;;
37701;SDS011;23548;51.196;6.838;2023-03-23T05:36:37;4.47;;;2.72;;
37701;SDS011;23548;51.196;6.838;2023-03-23T05:39:02;4.15;;;2.53;;
37701;SDS011;23548;51.196;6.838;2023-03-23T05:41:29;4.28;;;2.70;;
37701;SDS011;23548;51.196;6.838;2023-03-23T05:43:55;7.00;;;2.92;;
37701;SDS011;23548;51.196;6.838;2023-03-23T05:46:20;4.20;;;2.92;;
37701;SDS011;23548;51.196;6.838;2023-03-23T05:48:46;6.75;;;2.83;;
37701;SDS011;23548;51.196;6.838;2023-03-23T05:51:12;3.17;;;2.50;;
37701;SDS011;23548;51.196;6.838;2023-03-23T05:53:38;5.78;;;2.90;;
37701;SDS011;23548;51.196;6.838;2023-03-23T05:56:04;4.43;;;2.60;;
37701;SDS011;23548;51.196;6.838;2023-03-23T05:58:32;4.95;;;3.13;;
37701;SDS011;23548;51.196;6.838;2023-03-23T06:00:57;4.55;;;2.92;;
37701;SDS011;23548;51.196;6.838;2023-03-23T06:03:23;4.93;;;2.38;;
37701;SDS011;23548;51.196;6.838;2023-03-23T06:05:49;5.80;;;2.75;;
37701;SDS011;23548;51.196;6.838;2023-03-23T06:08:15;4.47;;;2.90;;
37701;SDS011;23548;51.196;6.838;2023-03-23T06:10:41;7.15;;;2.63;;
37701;SDS011;23548;51.196;6.838;2023-03-23T06:13:07;4.30;;;2.83;;
37701;SDS011;23548;51.196;6.838;2023-03-23T06:15:32;8.60;;;3.33;;
37701;SDS011;23548;51.196;6.838;2023-03-23T06:17:59;3.80;;;2.63;;
37701;SDS011;23548;51.196;6.838;2023-03-23T06:20:25;4.82;;;2.95;;
37701;SDS011;23548;51.196;6.838;2023-03-23T06:22:51;5.10;;;2.55;;
37701;SDS011;23548;51.196;6.838;2023-03-23T06:25:19;5.43;;;2.78;;
37701;SDS011;23548;51.196;6.838;2023-03-23T06:27:45;6.97;;;2.75;;
37701;SDS011;23548;51.196;6.838;2023-03-23T06:30:11;5.03;;;2.38;;
37701;SDS011;23548;51.196;6.838;2023-03-23T06:32:40;6.13;;;2.83;;
37701;SDS011;23548;51.196;6.838;2023-03-23T06:35:07;7.00;;;2.55;;
37701;SDS011;23548;51.196;6.838;2023-03-23T06:37:35;7.50;;;2.80;;
37701;SDS011;23548;51.196;6.838;2023-03-23T06:40:02;4.97;;;2.22;;
37701;SDS011;23548;51.196;6.838;2023-03-23T06:42:31;5.10;;;2.58;;
37701;SDS011;23548;51.196;6.838;2023-03-23T06:44:57;7.05;;;2.72;;
37701;SDS011;23548;51.196;6.838;2023-03-23T06:47:25;7.80;;;2.90;;
37701;SDS011;23548;51.196;6.838;2023-03-23T06:49:52;4.10;;;2.40;;
37701;SDS011;23548;51.196;6.838;2023-03-23T06:52:17;7.97;;;2.70;;
37701;SDS011;23548;51.196;6.838;2023-03-23T06:54:43;5.43;;;2.60;;
37701;SDS011;23548;51.196;6.838;2023-03-23T06:57:09;3.70;;;2.30;;
37701;SDS011;23548;51.196;6.838;2023-03-23T06:59:35;6.25;;;2.60;;
37701;SDS011;23548;51.196;6.838;2023-03-23T07:02:00;6.35;;;2.30;;
37701;SDS011;23548;51.196;6.838;2023-03-23T07:04:26;6.32;;;2.55;;
37701;SDS011;23548;51.196;6.838;2023-03-23T07:06:52;8.25;;;2.78;;
37701;SDS011;23548;51.196;6.838;2023-03-23T07:09:18;7.28;;;2.78;;
37701;SDS011;23548;51.196;6.838;2023-03-23T07:11:44;6.93;;;2.10;;
37701;SDS011;23548;51.196;6.838;2023-03-23T07:14:12;5.57;;;2.45;;
37701;SDS011;23548;51.196;6.838;2023-03-23T07:16:38;8.98;;;2.28;;
37701;SDS011;23548;51.196;6.838;2023-03-23T07:19:04;7.75;;;2.67;;
37701;SDS011;23548;51.196;6.838;2023-03-23T07:21:29;6.78;;;2.13;;
37701;SDS011;23548;51.196;6.838;2023-03-23T07:23:55;4.93;;;1.90;;
37701;SDS011;23548;51.196;6.838;2023-03-23T07:26:21;5.32;;;2.10;;
37701;SDS011;23548;51.196;6.838;2023-03-23T07:28:48;5.60;;;2.20;;
37701;SDS011;23548;51.196;6.838;2023-03-23T07:31:13;5.15;;;2.17;;
37701;SDS011;23548;51.196;6.838;2023-03-23T07:33:39;7.38;;;3.00;;
37701;SDS011;23548;51.196;6.838;2023-03-23T07:36:05;3.70;;;2.08;;
37701;SDS011;23548;51.196;6.838;2023-03-23T07:38:31;7.18;;;2.25;;
37701;SDS011;23548;51.196;6.838;2023-03-23T07:40:57;6.72;;;2.13;;
37701;SDS011;23548;51.196;6.838;2023-03-23T07:43:23;5.28;;;1.77;;
37701;SDS011;23548;51.196;6.838;2023-03-23T07:45:48;4.30;;;1.95;;
37701;SDS011;23548;51.196;6.838;2023-03-23T07:48:14;2.65;;;1.83;;
37701;SDS011;23548;51.196;6.838;2023-03-23T07:50:40;10.07;;;2.05;;
37701;SDS011;23548;51.196;6.838;2023-03-23T07:53:06;4.95;;;1.98;;
37701;SDS011;23548;51.196;6.838;2023-03-23T07:55:32;5.95;;;1.83;;
37701;SDS011;23548;51.196;6.838;2023-03-23T07:57:58;6.18;;;2.03;;
37701;SDS011;23548;51.196;6.838;2023-03-23T08:00:25;8.80;;;2.13;;
37701;SDS011;23548;51.196;6.838;2023-03-23T08:02:52;3.20;;;1.88;;
37701;SDS011;23548;51.196;6.838;2023-03-23T08:05:22;5.82;;;2.00;;
37701;SDS011;23548;51.196;6.838;2023-03-23T08:07:51;4.13;;;1.95;;
37701;SDS011;23548;51.196;6.838;2023-03-23T08:10:19;7.78;;;2.20;;
37701;SDS011;23548;51.196;6.838;2023-03-23T08:12:49;7.65;;;1.80;;
37701;SDS011;23548;51.196;6.838;2023-03-23T08:15:17;7.38;;;1.98;;
37701;SDS011;23548;51.196;6.838;2023-03-23T08:17:43;9.65;;;2.22;;
37701;SDS011;23548;51.196;6.838;2023-03-23T08:20:10;5.03;;;1.92;;
37701;SDS011;23548;51.196;6.838;2023-03-23T08:22:42;6.72;;;2.00;;
37701;SDS011;23548;51.196;6.838;2023-03-23T08:25:11;5.25;;;2.10;;
37701;SDS011;23548;51.196;6.838;2023-03-23T08:27:38;6.78;;;2.47;;
37701;SDS011;23548;51.196;6.838;2023-03-23T08:30:10;6.00;;;1.98;;
37701;SDS011;23548;51.196;6.838;2023-03-23T08:32:38;8.88;;;1.98;;
37701;SDS011;23548;51.196;6.838;2023-03-23T08:35:05;7.05;;;3.03;;
37701;SDS011;23548;51.196;6.838;2023-03-23T08:37:32;6.68;;;2.15;;
37701;SDS011;23548;51.196;6.838;2023-03-23T08:39:57;5.90;;;2.00;;
37701;SDS011;23548;51.196;6.838;2023-03-23T08:42:26;6.65;;;2.08;;
37701;SDS011;23548;51.196;6.838;2023-03-23T08:44:52;8.40;;;2.70;;
37701;SDS011;23548;51.196;6.838;2023-03-23T08:47:17;9.60;;;2.85;;
37701;SDS011;23548;51.196;6.838;2023-03-23T08:49:43;7.68;;;2.78;;
37701;SDS011;23548;51.196;6.838;2023-03-23T08:52:10;7.85;;;2.10;;
37701;SDS011;23548;51.196;6.838;2023-03-23T08:54:36;3.97;;;1.73;;
37701;SDS011;23548;51.196;6.838;2023-03-23T08:57:03;6.05;;;2.33;;
37701;SDS011;23548;51.196;6.838;2023-03-23T08:59:29;6.35;;;2.10;;
37701;SDS011;23548;51.196;6.838;2023-03-23T09:01:55;4.28;;;1.95;;
37701;SDS011;23548;51.196;6.838;2023-03-23T09:04:21;6.82;;;2.10;;
37701;SDS011;23548;51.196;6.838;2023-03-23T09:06:47;6.22;;;2.22;;
37701;SDS011;23548;51.196;6.838;2023-03-23T09:09:13;5.75;;;1.90;;
37701;SDS011;23548;51.196;6.838;2023-03-23T09:11:39;6.40;;;2.30;;
37701;SDS011;23548;51.196;6.838;2023-03-23T09:14:06;10.40;;;2.20;;
37701;SDS011;23548;51.196;6.838;2023-03-23T09:16:33;10.55;;;2.60;;
37701;SDS011;23548;51.196;6.838;2023-03-23T09:18:59;6.05;;;2.22;;
37701;SDS011;23548;51.196;6.838;2023-03-23T09:21:26;9.65;;;2.50;;
37701;SDS011;23548;51.196;6.838;2023-03-23T09:23:52;6.03;;;1.90;;
37701;SDS011;23548;51.196;6.838;2023-03-23T09:26:18;7.80;;;2.22;;
37701;SDS011;23548;51.196;6.838;2023-03-23T09:28:44;6.80;;;2.25;;
37701;SDS011;23548;51.196;6.838;2023-03-23T09:31:11;7.63;;;2.53;;
37701;SDS011;23548;51.196;6.838;2023-03-23T09:33:37;11.07;;;3.15;;
37701;SDS011;23548;51.196;6.838;2023-03-23T09:36:03;6.25;;;2.17;;
37701;SDS011;23548;51.196;6.838;2023-03-23T09:38:30;8.27;;;2.60;;
37701;SDS011;23548;51.196;6.838;2023-03-23T09:46:40;7.57;;;2.38;;
37701;SDS011;23548;51.196;6.838;2023-03-23T09:49:25;7.68;;;2.90;;
37701;SDS011;23548;51.196;6.838;2023-03-23T09:54:39;11.90;;;3.97;;
37701;SDS011;23548;51.196;6.838;2023-03-23T09:57:12;10.65;;;2.95;;
37701;SDS011;23548;51.196;6.838;2023-03-23T10:00:03;7.70;;;1.98;;
37701;SDS011;23548;51.196;6.838;2023-03-23T10:15:59;4.20;;;1.50;;
37701;SDS011;23548;51.196;6.838;2023-03-23T10:18:35;3.45;;;0.80;;
37701;SDS011;23548;51.196;6.838;2023-03-23T10:21:01;2.95;;;0.90;;
37701;SDS011;23548;51.196;6.838;2023-03-23T10:28:45;3.05;;;0.82;;
37701;SDS011;23548;51.196;6.838;2023-03-23T10:31:21;4.65;;;0.90;;
37701;SDS011;23548;51.196;6.838;2023-03-23T10:33:50;1.73;;;0.60;;
37701;SDS011;23548;51.196;6.838;2023-03-23T10:39:19;3.70;;;1.20;;
37701;SDS011;23548;51.196;6.838;2023-03-23T10:41:47;4.18;;;1.17;;
37701;SDS011;23548;51.196;6.838;2023-03-23T10:46:44;6.47;;;1.35;;
37701;SDS011;23548;51.196;6.838;2023-03-23T10:49:22;3.35;;;1.10;;
37701;SDS011;23548;51.196;6.838;2023-03-23T10:55:02;2.95;;;1.38;;
37701;SDS011;23548;51.196;6.838;2023-03-23T10:57:36;4.60;;;1.23;;
37701;SDS011;23548;51.196;6.838;2023-03-23T11:00:06;4.45;;;1.40;;
37701;SDS011;23548;51.196;6.838;2023-03-23T11:02:58;6.57;;;1.23;;
37701;SDS011;23548;51.196;6.838;2023-03-23T11:05:54;3.58;;;1.75;;
37701;SDS011;23548;51.196;6.838;2023-03-23T11:08:26;3.35;;;2.10;;
37701;SDS011;23548;51.196;6.838;2023-03-23T11:10:57;2.97;;;1.70;;
37701;SDS011;23548;51.196;6.838;2023-03-23T11:13:30;2.60;;;1.20;;
37701;SDS011;23548;51.196;6.838;2023-03-23T11:15:56;3.60;;;1.20;;
37701;SDS011;23548;51.196;6.838;2023-03-23T11:18:24;2.92;;;1.45;;
37701;SDS011;23548;51.196;6.838;2023-03-23T11:21:10;4.07;;;1.60;;
37701;SDS011;23548;51.196;6.838;2023-03-23T11:23:39;5.50;;;1.45;;
37701;SDS011;23548;51.196;6.838;2023-03-23T11:26:17;4.40;;;1.70;;
37701;SDS011;23548;51.196;6.838;2023-03-23T11:28:58;7.07;;;1.90;;
37701;SDS011;23548;51.196;6.838;2023-03-23T11:31:40;6.05;;;1.85;;
37701;SDS011;23548;51.196;6.838;2023-03-23T11:34:16;3.90;;;1.80;;
37701;SDS011;23548;51.196;6.838;2023-03-23T11:39:24;4.57;;;1.98;;
37701;SDS011;23548;51.196;6.838;2023-03-23T11:41:52;7.68;;;2.40;;
37701;SDS011;23548;51.196;6.838;2023-03-23T11:44:20;4.22;;;2.38;;
37701;SDS011;23548;51.196;6.838;2023-03-23T11:47:49;4.90;;;2.20;;
37701;SDS011;23548;51.196;6.838;2023-03-23T11:58:12;9.75;;;2.80;;
37701;SDS011;23548;51.196;6.838;2023-03-23T12:01:04;5.53;;;2.10;;
37701;SDS011;23548;51.196;6.838;2023-03-23T12:30:50;6.32;;;2.10;;
37701;SDS011;23548;51.196;6.838;2023-03-23T12:33:55;2.70;;;2.30;;
37701;SDS011;23548;51.196;6.838;2023-03-23T12:42:00;3.95;;;2.83;;
37701;SDS011;23548;51.196;6.838;2023-03-23T12:50:11;5.13;;;3.00;;
37701;SDS011;23548;51.196;6.838;2023-03-23T12:52:48;4.03;;;2.72;;
37701;SDS011;23548;51.196;6.838;2023-03-23T13:06:16;4.97;;;3.50;;
37701;SDS011;23548;51.196;6.838;2023-03-23T13:08:55;6.25;;;3.20;;
37701;SDS011;23548;51.196;6.838;2023-03-23T13:11:31;4.47;;;3.25;;
37701;SDS011;23548;51.196;6.838;2023-03-23T13:14:05;4.47;;;3.30;;
37701;SDS011;23548;51.196;6.838;2023-03-23T13:19:45;6.55;;;3.35;;
37701;SDS011;23548;51.196;6.838;2023-03-23T13:22:45;7.18;;;4.38;;
37701;SDS011;23548;51.196;6.838;2023-03-23T13:28:31;7.70;;;5.00;;
37701;SDS011;23548;51.196;6.838;2023-03-23T13:31:13;6.32;;;3.95;;
37701;SDS011;23548;51.196;6.838;2023-03-23T13:33:51;6.22;;;4.50;;
37701;SDS011;23548;51.196;6.838;2023-03-23T13:36:29;7.60;;;4.00;;
37701;SDS011;23548;51.196;6.838;2023-03-23T13:39:05;8.50;;;4.32;;
37701;SDS011;23548;51.196;6.838;2023-03-23T13:41:48;4.78;;;4.20;;
37701;SDS011;23548;51.196;6.838;2023-03-23T13:54:50;8.35;;;5.70;;
37701;SDS011;23548;51.196;6.838;2023-03-23T14:00:10;9.82;;;6.20;;
37701;SDS011;23548;51.196;6.838;2023-03-23T14:05:49;9.38;;;5.78;;
37701;SDS011;23548;51.196;6.838;2023-03-23T14:11:00;9.90;;;4.72;;
37701;SDS011;23548;51.196;6.838;2023-03-23T14:16:38;6.85;;;2.85;;
37701;SDS011;23548;51.196;6.838;2023-03-23T14:19:13;7.00;;;2.30;;
37701;SDS011;23548;51.196;6.838;2023-03-23T14:21:41;4.57;;;2.03;;
37701;SDS011;23548;51.196;6.838;2023-03-23T14:24:21;5.85;;;2.17;;
37701;SDS011;23548;51.196;6.838;2023-03-23T14:26:48;4.68;;;2.25;;
37701;SDS011;23548;51.196;6.838;2023-03-23T14:29:17;6.50;;;1.90;;
37701;SDS011;23548;51.196;6.838;2023-03-23T14:31:45;4.45;;;2.25;;
37701;SDS011;23548;51.196;6.838;2023-03-23T14:34:18;4.10;;;2.08;;
37701;SDS011;23548;51.196;6.838;2023-03-23T14:36:45;4.28;;;2.05;;
37701;SDS011;23548;51.196;6.838;2023-03-23T14:39:17;8.90;;;2.17;;
37701;SDS011;23548;51.196;6.838;2023-03-23T14:41:44;6.82;;;1.88;;
37701;SDS011;23548;51.196;6.838;2023-03-23T14:44:13;3.28;;;1.90;;
37701;SDS011;23548;51.196;6.838;2023-03-23T14:46:42;5.75;;;2.65;;
37701;SDS011;23548;51.196;6.838;2023-03-23T14:49:10;5.13;;;2.15;;
37701;SDS011;23548;51.196;6.838;2023-03-23T14:51:52;6.78;;;2.83;;
37701;SDS011;23548;51.196;6.838;2023-03-23T14:54:27;4.43;;;2.42;;
37701;SDS011;23548;51.196;6.838;2023-03-23T14:56:54;9.63;;;3.70;;
37701;SDS011;23548;51.196;6.838;2023-03-23T14:59:21;9.48;;;3.20;;
37701;SDS011;23548;51.196;6.838;2023-03-23T15:01:47;7.32;;;3.40;;
37701;SDS011;23548;51.196;6.838;2023-03-23T15:04:23;8.15;;;3.08;;
37701;SDS011;23548;51.196;6.838;2023-03-23T15:06:52;7.20;;;2.83;;
37701;SDS011;23548;51.196;6.838;2023-03-23T15:09:23;4.80;;;2.40;;
37701;SDS011;23548;51.196;6.838;2023-03-23T15:12:00;7.43;;;2.65;;
37701;SDS011;23548;51.196;6.838;2023-03-23T15:14:29;9.48;;;2.60;;
37701;SDS011;23548;51.196;6.838;2023-03-23T15:16:59;11.73;;;2.05;;
37701;SDS011;23548;51.196;6.838;2023-03-23T15:19:33;6.35;;;2.10;;
37701;SDS011;23548;51.196;6.838;2023-03-23T15:22:06;11.32;;;1.90;;
37701;SDS011;23548;51.196;6.838;2023-03-23T15:24:41;4.13;;;1.92;;
37701;SDS011;23548;51.196;6.838;2023-03-23T15:27:18;7.45;;;2.00;;
37701;SDS011;23548;51.196;6.838;2023-03-23T15:29:52;4.80;;;1.90;;
37701;SDS011;23548;51.196;6.838;2023-03-23T15:32:23;5.07;;;2.22;;
37701;SDS011;23548;51.196;6.838;2023-03-23T15:34:51;11.45;;;2.80;;
37701;SDS011;23548;51.196;6.838;2023-03-23T15:39:44;6.95;;;2.50;;
37701;SDS011;23548;51.196;6.838;2023-03-23T15:42:25;7.03;;;2.67;;
37701;SDS011;23548;51.196;6.838;2023-03-23T15:45:03;6.90;;;2.47;;
37701;SDS011;23548;51.196;6.838;2023-03-23T15:50:52;5.85;;;2.60;;
37701;SDS011;23548;51.196;6.838;2023-03-23T15:52:53;8.10;;;4.13;;
37701;SDS011;23548;51.196;6.838;2023-03-23T15:55:24;12.90;;;10.13;;
37701;SDS011;23548;51.196;6.838;2023-03-23T15:57:52;7.82;;;3.22;;
37701;SDS011;23548;51.196;6.838;2023-03-23T16:00:20;8.55;;;3.05;;
37701;SDS011;23548;51.196;6.838;2023-03-23T16:02:49;7.35;;;2.92;;
37701;SDS011;23548;51.196;6.838;2023-03-23T16:05:21;11.95;;;3.03;;
37701;SDS011;23548;51.196;6.838;2023-03-23T16:07:47;9.02;;;3.13;;
37701;SDS011;23548;51.196;6.838;2023-03-23T16:10:15;7.00;;;2.80;;
37701;SDS011;23548;51.196;6.838;2023-03-23T16:12:43;5.53;;;2.83;;
37701;SDS011;23548;51.196;6.838;2023-03-23T16:15:10;10.45;;;3.10;;
37701;SDS011;23548;51.196;6.838;2023-03-23T16:17:38;8.90;;;2.90;;
37701;SDS011;23548;51.196;6.838;2023-03-23T16:20:27;5.45;;;2.67;;
37701;SDS011;23548;51.196;6.838;2023-03-23T16:22:50;6.95;;;2.92;;
37701;SDS011;23548;51.196;6.838;2023-03-23T16:25:16;7.20;;;2.65;;
37701;SDS011;23548;51.196;6.838;2023-03-23T16:27:43;6.70;;;3.15;;
37701;SDS011;23548;51.196;6.838;2023-03-23T16:30:15;7.35;;;2.45;;
37701;SDS011;23548;51.196;6.838;2023-03-23T16:32:45;9.10;;;3.25;;
37701;SDS011;23548;51.196;6.838;2023-03-23T16:35:12;6.75;;;2.58;;
37701;SDS011;23548;51.196;6.838;2023-03-23T16:37:42;5.05;;;2.60;;
37701;SDS011;23548;51.196;6.838;2023-03-23T16:40:16;5.85;;;2.50;;
37701;SDS011;23548;51.196;6.838;2023-03-23T16:42:43;6.55;;;2.15;;
37701;SDS011;23548;51.196;6.838;2023-03-23T16:45:11;4.35;;;2.17;;
37701;SDS011;23548;51.196;6.838;2023-03-23T16:47:38;8.77;;;2.58;;
37701;SDS011;23548;51.196;6.838;2023-03-23T16:50:04;8.15;;;2.45;;
37701;SDS011;23548;51.196;6.838;2023-03-23T16:52:32;9.20;;;2.65;;
37701;SDS011;23548;51.196;6.838;2023-03-23T16:54:58;7.15;;;2.20;;
37701;SDS011;23548;51.196;6.838;2023-03-23T16:57:25;6.38;;;2.53;;
37701;SDS011;23548;51.196;6.838;2023-03-23T16:59:51;10.57;;;2.70;;
37701;SDS011;23548;51.196;6.838;2023-03-23T17:02:17;7.07;;;2.80;;
37701;SDS011;23548;51.196;6.838;2023-03-23T17:04:43;5.88;;;2.42;;
37701;SDS011;23548;51.196;6.838;2023-03-23T17:07:10;14.05;;;4.15;;
37701;SDS011;23548;51.196;6.838;2023-03-23T17:09:37;8.20;;;3.38;;
37701;SDS011;23548;51.196;6.838;2023-03-23T17:12:03;10.82;;;3.67;;
37701;SDS011;23548;51.196;6.838;2023-03-23T17:14:30;7.72;;;2.72;;
37701;SDS011;23548;51.196;6.838;2023-03-23T17:16:56;8.63;;;2.53;;
37701;SDS011;23548;51.196;6.838;2023-03-23T17:19:22;6.97;;;2.22;;
37701;SDS011;23548;51.196;6.838;2023-03-23T17:21:48;6.03;;;2.67;;
37701;SDS011;23548;51.196;6.838;2023-03-23T17:24:13;4.88;;;2.35;;
37701;SDS011;23548;51.196;6.838;2023-03-23T17:26:40;6.72;;;2.25;;
37701;SDS011;23548;51.196;6.838;2023-03-23T17:29:05;9.20;;;2.30;;
37701;SDS011;23548;51.196;6.838;2023-03-23T17:31:32;5.88;;;2.53;;
37701;SDS011;23548;51.196;6.838;2023-03-23T17:33:57;6.65;;;2.67;;
37701;SDS011;23548;51.196;6.838;2023-03-23T17:36:24;8.20;;;2.95;;
37701;SDS011;23548;51.196;6.838;2023-03-23T17:38:50;6.05;;;2.53;;